CPA821 CYYZ-VHHH
Flight info
| Callsign | CPA821 |
|---|---|
| Flight time | N/A |
| Altitude | 33000 |
| Route | IKLEN3 TONNY DCT OXASA DCT 50N079W DCT GW DCT YTE DCT 70N076W 75N075W/M085F360 DCT MODET/N0501F370 DCT 80N075W/N0499F360 85N080W/N0494F350 DCT DEKMO/N0495F360 DCT DEVID/K0917F360 M132 BESON/K0911F380 M132 HTG/K0911F390 M153 SERNA/K0896S1190 Y520 POLHO/K0883S1160 G218 TMR/K0885S1130 B458 VERUX/K0900S1190 B458 DADGA/K0902S1220 W37 GUSIV/K0889S1190 W37 PEXID/K0893S1160 W37 OMBEB/K0889S1190 R473 BEMAG/K0898S1160 R473 WYN W18 NLG W23 ZUH R473 SIERA |
| Aircraft | A35K/H-SABDE2E3GHIJ1J2J3J4J5LM1OP2RVWXYZ/LB1D1G1 |
Departure
| Time | N/A |
|---|---|
| Airport | Toronto Pearson International Airport (CYYZ) |
Arrival
| Time | 2026-04-30 06:10 |
|---|---|
| Airport | Hong Kong International Airport (VHHH) |
| Time | Latitude | Longitude | Altitude | Speed | Heading |
|---|---|---|---|---|---|
| 2026-04-30 05:15 | 26.86604 | 113.74944 | 39253 ft | 504 kts | 172° |
| 2026-04-30 05:15 | 26.83217 | 113.75940 | 39245 ft | 503 kts | 171° |
| 2026-04-30 05:15 | 26.76496 | 113.77918 | 39245 ft | 497 kts | 171° |
| 2026-04-30 05:16 | 26.69812 | 113.79920 | 39247 ft | 497 kts | 171° |
| 2026-04-30 05:16 | 26.63159 | 113.82016 | 39243 ft | 497 kts | 170° |
| 2026-04-30 05:17 | 26.56491 | 113.84126 | 39210 ft | 497 kts | 170° |
| 2026-04-30 05:17 | 26.49838 | 113.86216 | 39239 ft | 496 kts | 170° |
| 2026-04-30 05:18 | 26.43191 | 113.88210 | 39236 ft | 494 kts | 171° |
| 2026-04-30 05:18 | 26.36522 | 113.90100 | 39233 ft | 494 kts | 172° |
| 2026-04-30 05:19 | 26.29854 | 113.91996 | 39232 ft | 494 kts | 171° |
| 2026-04-30 05:19 | 26.23150 | 113.93923 | 39233 ft | 494 kts | 171° |
| 2026-04-30 05:20 | 26.16497 | 113.95843 | 39225 ft | 494 kts | 171° |
| 2026-04-30 05:20 | 26.09837 | 113.97762 | 39226 ft | 494 kts | 171° |
| 2026-04-30 05:21 | 26.03184 | 113.99676 | 39224 ft | 494 kts | 171° |
| 2026-04-30 05:21 | 25.96572 | 114.01607 | 39207 ft | 494 kts | 171° |
| 2026-04-30 05:22 | 25.89919 | 114.03593 | 39221 ft | 495 kts | 171° |
| 2026-04-30 05:22 | 25.83262 | 114.05579 | 39220 ft | 495 kts | 171° |
| 2026-04-30 05:23 | 25.76612 | 114.07554 | 39221 ft | 495 kts | 171° |
| 2026-04-30 05:23 | 25.69963 | 114.09524 | 39219 ft | 495 kts | 171° |
| 2026-04-30 05:24 | 25.63308 | 114.11492 | 39214 ft | 495 kts | 171° |
| 2026-04-30 05:24 | 25.56655 | 114.13459 | 39216 ft | 495 kts | 171° |
| 2026-04-30 05:25 | 25.49987 | 114.15427 | 39219 ft | 496 kts | 171° |
| 2026-04-30 05:25 | 25.43317 | 114.17394 | 39213 ft | 496 kts | 171° |
| 2026-04-30 05:26 | 25.36657 | 114.19355 | 39198 ft | 496 kts | 171° |
| 2026-04-30 05:26 | 25.29992 | 114.21316 | 39214 ft | 495 kts | 171° |
| 2026-04-30 05:27 | 25.23322 | 114.23276 | 39216 ft | 495 kts | 171° |
| 2026-04-30 05:27 | 25.16665 | 114.25230 | 39209 ft | 495 kts | 171° |
| 2026-04-30 05:28 | 25.09959 | 114.26618 | 39213 ft | 485 kts | 183° |
| 2026-04-30 05:28 | 25.03342 | 114.26032 | 39210 ft | 475 kts | 195° |
| 2026-04-30 05:29 | 24.96848 | 114.24676 | 39211 ft | 474 kts | 197° |
| 2026-04-30 05:29 | 24.90387 | 114.23211 | 39210 ft | 474 kts | 197° |
| 2026-04-30 05:30 | 24.83876 | 114.21757 | 39209 ft | 474 kts | 196° |
| 2026-04-30 05:30 | 24.77401 | 114.20341 | 39221 ft | 475 kts | 196° |
| 2026-04-30 05:31 | 24.70905 | 114.18931 | 39207 ft | 476 kts | 196° |
| 2026-04-30 05:31 | 24.64393 | 114.17520 | 39204 ft | 477 kts | 196° |
| 2026-04-30 05:32 | 24.57924 | 114.16121 | 39202 ft | 477 kts | 196° |
| 2026-04-30 05:32 | 24.51415 | 114.14714 | 39197 ft | 477 kts | 196° |
| 2026-04-30 05:33 | 24.44852 | 114.13294 | 39200 ft | 478 kts | 196° |
| 2026-04-30 05:33 | 24.38367 | 114.11894 | 39203 ft | 478 kts | 195° |
| 2026-04-30 05:34 | 24.31817 | 114.10417 | 39196 ft | 477 kts | 199° |
| 2026-04-30 05:34 | 24.25447 | 114.08458 | 39196 ft | 475 kts | 201° |
| 2026-04-30 05:35 | 24.19100 | 114.06388 | 39190 ft | 476 kts | 201° |
| 2026-04-30 05:35 | 24.12726 | 114.04385 | 39183 ft | 477 kts | 200° |
| 2026-04-30 05:36 | 24.06324 | 114.02432 | 39185 ft | 478 kts | 200° |
| 2026-04-30 05:36 | 23.99928 | 114.00497 | 39186 ft | 478 kts | 200° |
| 2026-04-30 05:37 | 23.93509 | 113.98555 | 39182 ft | 478 kts | 200° |
| 2026-04-30 05:37 | 23.87099 | 113.96614 | 39185 ft | 478 kts | 200° |
| 2026-04-30 05:38 | 23.80679 | 113.94672 | 39184 ft | 478 kts | 200° |
| 2026-04-30 05:38 | 23.74261 | 113.92733 | 39176 ft | 478 kts | 200° |
| 2026-04-30 05:39 | 23.67844 | 113.90796 | 39161 ft | 478 kts | 200° |
| 2026-04-30 05:39 | 23.61431 | 113.88862 | 39171 ft | 478 kts | 200° |
| 2026-04-30 05:40 | 23.55033 | 113.86934 | 39171 ft | 478 kts | 200° |
| 2026-04-30 05:40 | 23.48619 | 113.85008 | 39169 ft | 478 kts | 199° |
| 2026-04-30 05:41 | 23.42207 | 113.83076 | 39166 ft | 478 kts | 200° |
| 2026-04-30 05:41 | 23.35804 | 113.81138 | 39167 ft | 478 kts | 200° |
| 2026-04-30 05:42 | 23.29398 | 113.79204 | 39162 ft | 478 kts | 200° |
| 2026-04-30 05:42 | 23.22987 | 113.77274 | 39162 ft | 478 kts | 200° |
| 2026-04-30 05:43 | 23.16575 | 113.75346 | 39162 ft | 478 kts | 200° |
| 2026-04-30 05:43 | 23.10163 | 113.73420 | 39163 ft | 479 kts | 200° |
| 2026-04-30 05:44 | 23.04830 | 113.71819 | 39086 ft | 479 kts | 199° |
| 2026-04-30 05:44 | 23.01639 | 113.70864 | 38868 ft | 472 kts | 199° |
| 2026-04-30 05:44 | 22.98500 | 113.69927 | 38542 ft | 464 kts | 199° |
| 2026-04-30 05:45 | 22.95381 | 113.68995 | 37868 ft | 464 kts | 199° |
| 2026-04-30 05:45 | 22.92277 | 113.68065 | 37243 ft | 464 kts | 199° |
| 2026-04-30 05:45 | 22.89155 | 113.67129 | 36605 ft | 464 kts | 199° |
| 2026-04-30 05:45 | 22.86046 | 113.66201 | 35940 ft | 464 kts | 200° |
| 2026-04-30 05:46 | 22.82936 | 113.65257 | 35266 ft | 465 kts | 200° |
| 2026-04-30 05:46 | 22.79817 | 113.64300 | 34607 ft | 466 kts | 200° |
| 2026-04-30 05:46 | 22.76687 | 113.63338 | 33824 ft | 468 kts | 200° |
| 2026-04-30 05:46 | 22.73556 | 113.62376 | 33010 ft | 470 kts | 200° |
| 2026-04-30 05:47 | 22.70404 | 113.61411 | 32219 ft | 471 kts | 200° |
| 2026-04-30 05:47 | 22.67249 | 113.60449 | 31451 ft | 472 kts | 200° |
| 2026-04-30 05:47 | 22.64100 | 113.59491 | 30887 ft | 468 kts | 200° |
| 2026-04-30 05:47 | 22.60968 | 113.58541 | 30345 ft | 465 kts | 200° |
| 2026-04-30 05:48 | 22.57823 | 113.57588 | 29734 ft | 462 kts | 200° |
| 2026-04-30 05:48 | 22.54749 | 113.56656 | 29146 ft | 457 kts | 200° |
| 2026-04-30 05:48 | 22.51722 | 113.55741 | 28592 ft | 453 kts | 200° |
| 2026-04-30 05:48 | 22.48698 | 113.54822 | 28025 ft | 449 kts | 200° |
| 2026-04-30 05:49 | 22.45750 | 113.53916 | 27497 ft | 445 kts | 200° |
| 2026-04-30 05:49 | 22.42747 | 113.52990 | 26961 ft | 441 kts | 200° |
| 2026-04-30 05:49 | 22.39810 | 113.52084 | 26419 ft | 437 kts | 200° |
| 2026-04-30 05:49 | 22.36902 | 113.51189 | 25910 ft | 434 kts | 200° |
| 2026-04-30 05:50 | 22.34011 | 113.50301 | 25394 ft | 430 kts | 199° |
| 2026-04-30 05:50 | 22.31141 | 113.49420 | 24876 ft | 427 kts | 199° |
| 2026-04-30 05:50 | 22.28295 | 113.48548 | 24362 ft | 424 kts | 199° |
| 2026-04-30 05:50 | 22.25450 | 113.47713 | 23835 ft | 423 kts | 195° |
| 2026-04-30 05:51 | 22.22532 | 113.47345 | 23260 ft | 427 kts | 183° |
| 2026-04-30 05:51 | 22.19580 | 113.47748 | 22694 ft | 430 kts | 169° |
| 2026-04-30 05:51 | 22.16715 | 113.48672 | 22129 ft | 429 kts | 166° |
| 2026-04-30 05:51 | 22.13892 | 113.49693 | 21599 ft | 427 kts | 165° |
| 2026-04-30 05:52 | 22.11087 | 113.50722 | 21051 ft | 424 kts | 165° |
| 2026-04-30 05:52 | 22.08301 | 113.51744 | 20519 ft | 422 kts | 165° |
| 2026-04-30 05:52 | 22.05572 | 113.52747 | 20345 ft | 408 kts | 165° |
| 2026-04-30 05:52 | 22.02931 | 113.53718 | 20230 ft | 393 kts | 165° |
| 2026-04-30 05:53 | 22.00381 | 113.54652 | 20077 ft | 382 kts | 165° |
| 2026-04-30 05:53 | 21.97883 | 113.55569 | 19677 ft | 379 kts | 165° |
| 2026-04-30 05:53 | 21.95429 | 113.56630 | 19208 ft | 380 kts | 160° |
| 2026-04-30 05:53 | 21.93014 | 113.57779 | 18778 ft | 379 kts | 160° |
| 2026-04-30 05:54 | 21.90602 | 113.58923 | 18346 ft | 378 kts | 161° |
| 2026-04-30 05:54 | 21.88199 | 113.60049 | 17877 ft | 376 kts | 161° |
| 2026-04-30 05:54 | 21.85809 | 113.61160 | 17436 ft | 373 kts | 161° |
| 2026-04-30 05:54 | 21.83432 | 113.62260 | 17024 ft | 370 kts | 161° |
| 2026-04-30 05:55 | 21.81072 | 113.63348 | 16610 ft | 367 kts | 161° |
| 2026-04-30 05:55 | 21.78729 | 113.64426 | 16197 ft | 365 kts | 161° |
| 2026-04-30 05:55 | 21.76403 | 113.65496 | 15776 ft | 363 kts | 161° |
| 2026-04-30 05:55 | 21.74093 | 113.66557 | 15363 ft | 360 kts | 161° |
| 2026-04-30 05:56 | 21.71793 | 113.67613 | 14959 ft | 358 kts | 161° |
| 2026-04-30 05:56 | 21.69530 | 113.68729 | 14558 ft | 362 kts | 154° |
| 2026-04-30 05:56 | 21.67572 | 113.70484 | 14176 ft | 372 kts | 132° |
| 2026-04-30 05:56 | 21.66266 | 113.72885 | 13774 ft | 375 kts | 111° |
| 2026-04-30 05:57 | 21.65778 | 113.75624 | 13355 ft | 374 kts | 92° |
| 2026-04-30 05:57 | 21.66154 | 113.78371 | 12916 ft | 371 kts | 68° |
| 2026-04-30 05:57 | 21.67473 | 113.80694 | 12446 ft | 361 kts | 43° |
| 2026-04-30 05:57 | 21.69484 | 113.82152 | 12216 ft | 340 kts | 17° |
| 2026-04-30 05:58 | 21.71731 | 113.82518 | 11979 ft | 318 kts | 350° |
| 2026-04-30 05:58 | 21.73848 | 113.82094 | 11726 ft | 306 kts | 346° |
| 2026-04-30 05:58 | 21.75971 | 113.82190 | 11411 ft | 309 kts | 12° |
| 2026-04-30 05:58 | 21.77860 | 113.83309 | 11119 ft | 314 kts | 35° |
| 2026-04-30 05:59 | 21.79532 | 113.84827 | 10787 ft | 314 kts | 39° |
| 2026-04-30 05:59 | 21.81152 | 113.86399 | 10365 ft | 314 kts | 39° |
| 2026-04-30 05:59 | 21.82772 | 113.87966 | 10081 ft | 312 kts | 38° |
| 2026-04-30 05:59 | 21.84614 | 113.89134 | 9594 ft | 305 kts | 14° |
| 2026-04-30 06:00 | 21.86663 | 113.89314 | 9210 ft | 292 kts | 347° |
| 2026-04-30 06:00 | 21.88563 | 113.88654 | 8907 ft | 285 kts | 332° |
| 2026-04-30 06:00 | 21.90342 | 113.87770 | 8607 ft | 284 kts | 331° |
| 2026-04-30 06:00 | 21.92123 | 113.86863 | 8327 ft | 282 kts | 331° |
| 2026-04-30 06:01 | 21.93900 | 113.85965 | 8020 ft | 281 kts | 331° |
| 2026-04-30 06:01 | 21.95659 | 113.85082 | 7756 ft | 279 kts | 332° |
| 2026-04-30 06:01 | 21.97417 | 113.84203 | 7463 ft | 277 kts | 332° |
| 2026-04-30 06:01 | 21.99162 | 113.83332 | 7183 ft | 275 kts | 332° |
| 2026-04-30 06:02 | 22.00894 | 113.82468 | 6905 ft | 274 kts | 332° |
| 2026-04-30 06:02 | 22.02619 | 113.81608 | 6618 ft | 272 kts | 332° |
| 2026-04-30 06:02 | 22.04333 | 113.80754 | 6337 ft | 271 kts | 332° |
| 2026-04-30 06:02 | 22.06039 | 113.79905 | 6054 ft | 270 kts | 332° |
| 2026-04-30 06:03 | 22.07764 | 113.79045 | 5775 ft | 269 kts | 332° |
| 2026-04-30 06:03 | 22.09435 | 113.78212 | 5504 ft | 268 kts | 332° |
| 2026-04-30 06:03 | 22.11148 | 113.77359 | 5226 ft | 267 kts | 333° |
| 2026-04-30 06:03 | 22.12839 | 113.76523 | 4943 ft | 266 kts | 332° |
| 2026-04-30 06:04 | 22.14495 | 113.75695 | 4665 ft | 266 kts | 333° |
| 2026-04-30 06:04 | 22.16169 | 113.74857 | 4462 ft | 257 kts | 333° |
| 2026-04-30 06:04 | 22.17744 | 113.74070 | 4296 ft | 245 kts | 333° |
| 2026-04-30 06:05 | 22.20706 | 113.72593 | 3988 ft | 224 kts | 333° |
| 2026-04-30 06:05 | 22.22065 | 113.71931 | 3856 ft | 210 kts | 337° |
| 2026-04-30 06:05 | 22.23457 | 113.71709 | 3697 ft | 200 kts | 7° |
| 2026-04-30 06:05 | 22.24675 | 113.72357 | 3435 ft | 195 kts | 37° |
| 2026-04-30 06:06 | 22.25688 | 113.73286 | 3220 ft | 186 kts | 40° |
| 2026-04-30 06:06 | 22.26632 | 113.74195 | 2880 ft | 179 kts | 39° |
| 2026-04-30 06:06 | 22.27554 | 113.75090 | 2464 ft | 178 kts | 41° |
| 2026-04-30 06:06 | 22.28270 | 113.76174 | 2237 ft | 177 kts | 63° |
| 2026-04-30 06:07 | 22.28667 | 113.77391 | 2072 ft | 167 kts | 69° |
| 2026-04-30 06:07 | 22.29038 | 113.78547 | 1846 ft | 157 kts | 66° |
| 2026-04-30 06:07 | 22.29398 | 113.79649 | 1666 ft | 157 kts | 66° |
| 2026-04-30 06:07 | 22.29759 | 113.80766 | 1435 ft | 157 kts | 68° |
| 2026-04-30 06:08 | 22.30116 | 113.81879 | 1240 ft | 156 kts | 67° |
| 2026-04-30 06:08 | 22.30472 | 113.82988 | 1040 ft | 155 kts | 67° |
| 2026-04-30 06:08 | 22.30815 | 113.84055 | 821 ft | 144 kts | 68° |
| 2026-04-30 06:08 | 22.31138 | 113.85061 | 658 ft | 142 kts | 67° |
| 2026-04-30 06:09 | 22.31456 | 113.86073 | 479 ft | 142 kts | 67° |
| 2026-04-30 06:09 | 22.31781 | 113.87058 | 281 ft | 139 kts | 67° |
| 2026-04-30 06:09 | 22.32105 | 113.88076 | 130 ft | 147 kts | 67° |
| 2026-04-30 06:09 | 22.32435 | 113.89115 | 42 ft | 145 kts | 66° |
| 2026-04-30 06:10 | 22.32742 | 113.90038 | 38 ft | 101 kts | 71° |
| 2026-04-30 06:10 | 22.32930 | 113.90627 | 39 ft | 65 kts | 71° |
| 2026-04-30 06:10 | 22.33062 | 113.91037 | 39 ft | 42 kts | 70° |
| 2026-04-30 06:10 | 22.33122 | 113.91220 | 39 ft | 10 kts | 71° |
| 2026-04-30 06:11 | 22.33107 | 113.91300 | 39 ft | 14 kts | 138° |
| 2026-04-30 06:11 | 22.33020 | 113.91340 | 38 ft | 13 kts | 154° |
| 2026-04-30 06:11 | 22.33008 | 113.91427 | 38 ft | 15 kts | 75° |
| 2026-04-30 06:11 | 22.33045 | 113.91552 | 38 ft | 21 kts | 71° |
| 2026-04-30 06:12 | 22.33097 | 113.91716 | 38 ft | 26 kts | 71° |
| 2026-04-30 06:12 | 22.33162 | 113.91914 | 38 ft | 30 kts | 70° |
| 2026-04-30 06:12 | 22.33208 | 113.92068 | 38 ft | 12 kts | 86° |
| 2026-04-30 06:12 | 22.33149 | 113.92136 | 38 ft | 16 kts | 157° |
| 2026-04-30 06:13 | 22.33024 | 113.92186 | 38 ft | 22 kts | 160° |
| 2026-04-30 06:13 | 22.32859 | 113.92247 | 38 ft | 27 kts | 161° |
| 2026-04-30 06:13 | 22.32669 | 113.92317 | 38 ft | 27 kts | 161° |
| 2026-04-30 06:13 | 22.32492 | 113.92384 | 38 ft | 27 kts | 161° |
| 2026-04-30 06:14 | 22.32363 | 113.92431 | 38 ft | 18 kts | 161° |
| 2026-04-30 06:14 | 22.32266 | 113.92468 | 38 ft | 10 kts | 157° |
| 2026-04-30 06:14 | 22.32249 | 113.92540 | 38 ft | 13 kts | 75° |
| 2026-04-30 06:14 | 22.32284 | 113.92648 | 38 ft | 16 kts | 70° |
| 2026-04-30 06:15 | 22.32284 | 113.92751 | 38 ft | 14 kts | 138° |
| 2026-04-30 06:15 | 22.32184 | 113.92791 | 38 ft | 17 kts | 161° |
| 2026-04-30 06:15 | 22.32069 | 113.92833 | 40 ft | 18 kts | 161° |
| 2026-04-30 06:15 | 22.31953 | 113.92877 | 38 ft | 18 kts | 158° |
| 2026-04-30 06:16 | 22.31865 | 113.92913 | 38 ft | 9 kts | 164° |
| 2026-04-30 06:16 | 22.31848 | 113.92915 | 38 ft | 0 kts | 179° |
| 2026-04-30 06:16 | 22.31831 | 113.92910 | 38 ft | 1 kts | 201° |
| 2026-04-30 06:17 | 22.31827 | 113.92907 | 38 ft | 3 kts | 212° |
| 2026-04-30 06:17 | 22.31804 | 113.92872 | 38 ft | 8 kts | 226° |
| 2026-04-30 06:17 | 22.31747 | 113.92865 | 38 ft | 10 kts | 166° |
| 2026-04-30 06:17 | 22.31666 | 113.92893 | 38 ft | 14 kts | 160° |
| 2026-04-30 06:18 | 22.31574 | 113.92927 | 38 ft | 12 kts | 166° |
| 2026-04-30 06:18 | 22.31531 | 113.92909 | 38 ft | 1 kts | 226° |
| 2026-04-30 06:18 | 22.31517 | 113.92905 | 38 ft | 5 kts | 192° |
| 2026-04-30 06:18 | 22.31479 | 113.92911 | 38 ft | 7 kts | 165° |
| 2026-04-30 06:19 | 22.31450 | 113.92922 | 38 ft | 4 kts | 161° |
| 2026-04-30 06:19 | 22.31433 | 113.92928 | 38 ft | 2 kts | 161° |
| 2026-04-30 06:19 | 22.31430 | 113.92929 | 38 ft | 0 kts | 161° |